sensor_id;sensor_type;location;lat;lon;timestamp;P1;durP1;ratioP1;P2;durP2;ratioP2
39822;SDS011;25499;53.958;10.970;2023-05-10T05:44:39;8.02;;;4.72;;
39822;SDS011;25499;53.958;10.970;2023-05-10T05:47:06;6.15;;;4.78;;
39822;SDS011;25499;53.958;10.970;2023-05-10T05:49:33;8.32;;;4.47;;
39822;SDS011;25499;53.958;10.970;2023-05-10T05:52:00;6.70;;;4.38;;
39822;SDS011;25499;53.958;10.970;2023-05-10T05:54:28;9.60;;;4.57;;
39822;SDS011;25499;53.958;10.970;2023-05-10T05:56:55;5.72;;;4.60;;
39822;SDS011;25499;53.958;10.970;2023-05-10T05:59:22;5.90;;;4.60;;
39822;SDS011;25499;53.958;10.970;2023-05-10T06:01:50;6.55;;;4.70;;
39822;SDS011;25499;53.958;10.970;2023-05-10T06:04:17;6.20;;;4.15;;
39822;SDS011;25499;53.958;10.970;2023-05-10T06:06:45;7.88;;;4.78;;
39822;SDS011;25499;53.958;10.970;2023-05-10T06:09:12;5.95;;;4.63;;
39822;SDS011;25499;53.958;10.970;2023-05-10T06:11:39;6.80;;;4.32;;
39822;SDS011;25499;53.958;10.970;2023-05-10T06:14:06;6.95;;;4.90;;
39822;SDS011;25499;53.958;10.970;2023-05-10T06:16:33;9.00;;;5.30;;
39822;SDS011;25499;53.958;10.970;2023-05-10T06:19:01;10.57;;;4.50;;
39822;SDS011;25499;53.958;10.970;2023-05-10T06:21:28;6.45;;;4.55;;
39822;SDS011;25499;53.958;10.970;2023-05-10T06:23:55;7.05;;;5.03;;
39822;SDS011;25499;53.958;10.970;2023-05-10T06:26:21;5.82;;;4.22;;
39822;SDS011;25499;53.958;10.970;2023-05-10T06:28:49;8.02;;;4.72;;
39822;SDS011;25499;53.958;10.970;2023-05-10T06:31:15;6.15;;;4.82;;
39822;SDS011;25499;53.958;10.970;2023-05-10T06:33:42;7.35;;;4.68;;
39822;SDS011;25499;53.958;10.970;2023-05-10T06:36:11;5.75;;;4.43;;
39822;SDS011;25499;53.958;10.970;2023-05-10T06:38:38;7.10;;;4.93;;
39822;SDS011;25499;53.958;10.970;2023-05-10T06:41:05;6.50;;;4.50;;
39822;SDS011;25499;53.958;10.970;2023-05-10T06:43:32;6.53;;;4.35;;
39822;SDS011;25499;53.958;10.970;2023-05-10T06:45:58;7.22;;;4.80;;
39822;SDS011;25499;53.958;10.970;2023-05-10T06:48:25;9.10;;;5.43;;
39822;SDS011;25499;53.958;10.970;2023-05-10T06:50:52;9.60;;;4.88;;
39822;SDS011;25499;53.958;10.970;2023-05-10T06:53:20;7.30;;;4.82;;
39822;SDS011;25499;53.958;10.970;2023-05-10T06:55:47;6.55;;;4.97;;
39822;SDS011;25499;53.958;10.970;2023-05-10T06:58:15;7.45;;;4.78;;
39822;SDS011;25499;53.958;10.970;2023-05-10T07:00:42;6.40;;;4.80;;
39822;SDS011;25499;53.958;10.970;2023-05-10T07:03:10;4.78;;;4.38;;
39822;SDS011;25499;53.958;10.970;2023-05-10T07:05:37;7.65;;;4.90;;
39822;SDS011;25499;53.958;10.970;2023-05-10T07:08:04;6.47;;;4.85;;
39822;SDS011;25499;53.958;10.970;2023-05-10T07:10:32;8.52;;;4.22;;
39822;SDS011;25499;53.958;10.970;2023-05-10T07:13:00;7.13;;;4.75;;
39822;SDS011;25499;53.958;10.970;2023-05-10T07:15:26;5.55;;;4.55;;
39822;SDS011;25499;53.958;10.970;2023-05-10T07:17:53;5.47;;;4.70;;
39822;SDS011;25499;53.958;10.970;2023-05-10T07:20:20;8.52;;;4.70;;
39822;SDS011;25499;53.958;10.970;2023-05-10T07:22:47;6.10;;;4.45;;
39822;SDS011;25499;53.958;10.970;2023-05-10T07:25:14;7.43;;;5.05;;
39822;SDS011;25499;53.958;10.970;2023-05-10T07:27:42;6.32;;;4.55;;
39822;SDS011;25499;53.958;10.970;2023-05-10T07:30:09;5.30;;;4.28;;
39822;SDS011;25499;53.958;10.970;2023-05-10T07:32:36;4.90;;;4.40;;
39822;SDS011;25499;53.958;10.970;2023-05-10T07:35:04;5.82;;;4.43;;
39822;SDS011;25499;53.958;10.970;2023-05-10T07:37:31;4.68;;;4.18;;
39822;SDS011;25499;53.958;10.970;2023-05-10T07:39:58;6.07;;;4.05;;
39822;SDS011;25499;53.958;10.970;2023-05-10T07:42:25;4.68;;;4.20;;
39822;SDS011;25499;53.958;10.970;2023-05-10T07:44:53;5.82;;;4.10;;
39822;SDS011;25499;53.958;10.970;2023-05-10T07:47:20;6.30;;;4.22;;
39822;SDS011;25499;53.958;10.970;2023-05-10T07:49:47;7.03;;;4.03;;
39822;SDS011;25499;53.958;10.970;2023-05-10T07:52:14;5.05;;;4.00;;
39822;SDS011;25499;53.958;10.970;2023-05-10T07:54:40;7.25;;;4.40;;
39822;SDS011;25499;53.958;10.970;2023-05-10T07:57:07;9.40;;;4.30;;
39822;SDS011;25499;53.958;10.970;2023-05-10T07:59:34;7.30;;;4.45;;
39822;SDS011;25499;53.958;10.970;2023-05-10T08:02:02;5.57;;;4.15;;
39822;SDS011;25499;53.958;10.970;2023-05-10T08:04:29;5.82;;;3.90;;
39822;SDS011;25499;53.958;10.970;2023-05-10T08:06:56;5.40;;;4.47;;
39822;SDS011;25499;53.958;10.970;2023-05-10T08:09:23;5.82;;;4.57;;
39822;SDS011;25499;53.958;10.970;2023-05-10T08:11:49;7.45;;;4.25;;
39822;SDS011;25499;53.958;10.970;2023-05-10T08:14:16;4.55;;;3.83;;
39822;SDS011;25499;53.958;10.970;2023-05-10T08:16:43;5.53;;;3.80;;
39822;SDS011;25499;53.958;10.970;2023-05-10T08:19:11;8.25;;;3.88;;
39822;SDS011;25499;53.958;10.970;2023-05-10T08:21:38;4.63;;;4.00;;
39822;SDS011;25499;53.958;10.970;2023-05-10T08:24:07;6.15;;;4.57;;
39822;SDS011;25499;53.958;10.970;2023-05-10T08:26:34;6.32;;;4.10;;
39822;SDS011;25499;53.958;10.970;2023-05-10T08:29:01;7.53;;;4.32;;
39822;SDS011;25499;53.958;10.970;2023-05-10T08:31:27;4.32;;;3.90;;
39822;SDS011;25499;53.958;10.970;2023-05-10T08:33:54;6.03;;;4.18;;
39822;SDS011;25499;53.958;10.970;2023-05-10T08:36:22;4.68;;;3.90;;
39822;SDS011;25499;53.958;10.970;2023-05-10T08:38:49;6.55;;;3.92;;
39822;SDS011;25499;53.958;10.970;2023-05-10T08:41:17;5.60;;;4.00;;
39822;SDS011;25499;53.958;10.970;2023-05-10T08:43:46;6.38;;;4.10;;
39822;SDS011;25499;53.958;10.970;2023-05-10T08:46:13;6.50;;;4.18;;
39822;SDS011;25499;53.958;10.970;2023-05-10T08:48:43;8.20;;;3.90;;
39822;SDS011;25499;53.958;10.970;2023-05-10T08:51:11;5.50;;;4.15;;
39822;SDS011;25499;53.958;10.970;2023-05-10T08:53:42;4.70;;;3.85;;
39822;SDS011;25499;53.958;10.970;2023-05-10T08:56:09;7.68;;;4.25;;
39822;SDS011;25499;53.958;10.970;2023-05-10T08:58:36;8.65;;;3.95;;
39822;SDS011;25499;53.958;10.970;2023-05-10T09:01:05;5.03;;;4.10;;
39822;SDS011;25499;53.958;10.970;2023-05-10T09:03:32;5.88;;;4.03;;
39822;SDS011;25499;53.958;10.970;2023-05-10T09:05:59;6.20;;;3.75;;
39822;SDS011;25499;53.958;10.970;2023-05-10T09:08:26;5.70;;;4.35;;
39822;SDS011;25499;53.958;10.970;2023-05-10T09:10:54;9.02;;;4.43;;
39822;SDS011;25499;53.958;10.970;2023-05-10T09:13:21;5.28;;;4.13;;
39822;SDS011;25499;53.958;10.970;2023-05-10T09:15:55;5.35;;;4.03;;
39822;SDS011;25499;53.958;10.970;2023-05-10T09:18:21;4.30;;;3.90;;
39822;SDS011;25499;53.958;10.970;2023-05-10T09:20:48;6.63;;;3.95;;
39822;SDS011;25499;53.958;10.970;2023-05-10T09:23:15;4.20;;;3.80;;
39822;SDS011;25499;53.958;10.970;2023-05-10T09:25:42;6.00;;;3.50;;
39822;SDS011;25499;53.958;10.970;2023-05-10T09:28:10;5.07;;;3.95;;
39822;SDS011;25499;53.958;10.970;2023-05-10T09:30:37;4.13;;;3.72;;
39822;SDS011;25499;53.958;10.970;2023-05-10T09:33:04;7.13;;;4.10;;
39822;SDS011;25499;53.958;10.970;2023-05-10T09:35:31;4.45;;;3.63;;
39822;SDS011;25499;53.958;10.970;2023-05-10T09:37:59;4.85;;;3.55;;
39822;SDS011;25499;53.958;10.970;2023-05-10T09:40:28;6.35;;;4.00;;
39822;SDS011;25499;53.958;10.970;2023-05-10T09:42:56;5.47;;;3.92;;
39822;SDS011;25499;53.958;10.970;2023-05-10T09:45:27;4.90;;;3.80;;
39822;SDS011;25499;53.958;10.970;2023-05-10T09:47:56;5.65;;;3.50;;
39822;SDS011;25499;53.958;10.970;2023-05-10T09:50:24;8.05;;;4.40;;
39822;SDS011;25499;53.958;10.970;2023-05-10T09:52:52;5.63;;;4.22;;
39822;SDS011;25499;53.958;10.970;2023-05-10T09:55:20;4.93;;;4.07;;
39822;SDS011;25499;53.958;10.970;2023-05-10T09:57:48;5.95;;;4.00;;
39822;SDS011;25499;53.958;10.970;2023-05-10T10:00:16;8.02;;;3.97;;
39822;SDS011;25499;53.958;10.970;2023-05-10T10:02:47;5.32;;;4.00;;
39822;SDS011;25499;53.958;10.970;2023-05-10T10:05:16;5.97;;;4.50;;
39822;SDS011;25499;53.958;10.970;2023-05-10T10:07:43;8.85;;;4.32;;
39822;SDS011;25499;53.958;10.970;2023-05-10T10:10:10;4.43;;;3.80;;
39822;SDS011;25499;53.958;10.970;2023-05-10T10:12:38;7.60;;;4.13;;
39822;SDS011;25499;53.958;10.970;2023-05-10T10:15:07;4.82;;;4.43;;
39822;SDS011;25499;53.958;10.970;2023-05-10T10:17:35;7.18;;;4.18;;
39822;SDS011;25499;53.958;10.970;2023-05-10T10:20:06;7.72;;;4.30;;
39822;SDS011;25499;53.958;10.970;2023-05-10T10:22:33;4.70;;;3.90;;
39822;SDS011;25499;53.958;10.970;2023-05-10T10:25:00;4.65;;;4.22;;
39822;SDS011;25499;53.958;10.970;2023-05-10T10:27:32;8.38;;;4.18;;
39822;SDS011;25499;53.958;10.970;2023-05-10T10:30:11;6.90;;;4.28;;
39822;SDS011;25499;53.958;10.970;2023-05-10T10:32:54;4.93;;;4.40;;
39822;SDS011;25499;53.958;10.970;2023-05-10T10:35:40;4.80;;;4.30;;
39822;SDS011;25499;53.958;10.970;2023-05-10T10:38:07;4.40;;;4.00;;
39822;SDS011;25499;53.958;10.970;2023-05-10T10:40:35;6.57;;;4.20;;
39822;SDS011;25499;53.958;10.970;2023-05-10T10:46:12;6.35;;;4.18;;
39822;SDS011;25499;53.958;10.970;2023-05-10T10:48:40;4.50;;;3.13;;
39822;SDS011;25499;53.958;10.970;2023-05-10T10:51:09;6.05;;;4.93;;
39822;SDS011;25499;53.958;10.970;2023-05-10T10:53:36;5.70;;;4.53;;
39822;SDS011;25499;53.958;10.970;2023-05-10T10:56:05;9.10;;;4.50;;
39822;SDS011;25499;53.958;10.970;2023-05-10T10:58:34;6.38;;;4.40;;
39822;SDS011;25499;53.958;10.970;2023-05-10T11:01:11;6.70;;;4.50;;
39822;SDS011;25499;53.958;10.970;2023-05-10T11:03:39;10.48;;;4.60;;
39822;SDS011;25499;53.958;10.970;2023-05-10T11:06:06;6.05;;;4.03;;
39822;SDS011;25499;53.958;10.970;2023-05-10T11:08:41;7.75;;;5.05;;
39822;SDS011;25499;53.958;10.970;2023-05-10T11:11:14;6.55;;;5.00;;
39822;SDS011;25499;53.958;10.970;2023-05-10T11:13:42;5.00;;;4.50;;
39822;SDS011;25499;53.958;10.970;2023-05-10T11:16:10;5.72;;;5.00;;
39822;SDS011;25499;53.958;10.970;2023-05-10T11:18:38;6.07;;;5.07;;
39822;SDS011;25499;53.958;10.970;2023-05-10T11:21:07;7.90;;;4.63;;
39822;SDS011;25499;53.958;10.970;2023-05-10T11:23:49;6.25;;;4.97;;
39822;SDS011;25499;53.958;10.970;2023-05-10T11:26:17;6.20;;;4.82;;
39822;SDS011;25499;53.958;10.970;2023-05-10T11:31:15;5.47;;;4.60;;
39822;SDS011;25499;53.958;10.970;2023-05-10T11:33:43;7.75;;;4.80;;
39822;SDS011;25499;53.958;10.970;2023-05-10T11:36:10;6.18;;;4.20;;
39822;SDS011;25499;53.958;10.970;2023-05-10T11:38:38;9.35;;;4.53;;
39822;SDS011;25499;53.958;10.970;2023-05-10T11:41:06;5.38;;;4.38;;
39822;SDS011;25499;53.958;10.970;2023-05-10T11:43:35;6.13;;;4.50;;
39822;SDS011;25499;53.958;10.970;2023-05-10T11:46:04;4.68;;;4.28;;
39822;SDS011;25499;53.958;10.970;2023-05-10T11:48:31;4.95;;;4.30;;
39822;SDS011;25499;53.958;10.970;2023-05-10T11:50:58;6.65;;;4.50;;
39822;SDS011;25499;53.958;10.970;2023-05-10T11:53:27;6.90;;;4.38;;
39822;SDS011;25499;53.958;10.970;2023-05-10T11:55:54;6.47;;;4.78;;
39822;SDS011;25499;53.958;10.970;2023-05-10T11:58:22;6.45;;;5.25;;
39822;SDS011;25499;53.958;10.970;2023-05-10T12:00:49;5.07;;;4.57;;
39822;SDS011;25499;53.958;10.970;2023-05-10T12:03:16;5.57;;;4.88;;
39822;SDS011;25499;53.958;10.970;2023-05-10T12:05:43;5.55;;;5.05;;
39822;SDS011;25499;53.958;10.970;2023-05-10T12:08:10;5.05;;;4.60;;
39822;SDS011;25499;53.958;10.970;2023-05-10T12:10:38;7.50;;;4.60;;
39822;SDS011;25499;53.958;10.970;2023-05-10T12:13:05;7.63;;;5.07;;
39822;SDS011;25499;53.958;10.970;2023-05-10T12:15:33;5.55;;;4.82;;
39822;SDS011;25499;53.958;10.970;2023-05-10T12:18:00;7.15;;;5.05;;
39822;SDS011;25499;53.958;10.970;2023-05-10T12:20:27;5.63;;;4.80;;
39822;SDS011;25499;53.958;10.970;2023-05-10T12:22:55;7.18;;;5.10;;
39822;SDS011;25499;53.958;10.970;2023-05-10T12:25:24;8.75;;;4.60;;
39822;SDS011;25499;53.958;10.970;2023-05-10T12:27:57;8.77;;;4.90;;
39822;SDS011;25499;53.958;10.970;2023-05-10T12:30:26;5.15;;;4.47;;
39822;SDS011;25499;53.958;10.970;2023-05-10T12:32:59;5.30;;;4.30;;
39822;SDS011;25499;53.958;10.970;2023-05-10T12:35:29;7.15;;;4.70;;
39822;SDS011;25499;53.958;10.970;2023-05-10T12:37:57;5.80;;;4.70;;
39822;SDS011;25499;53.958;10.970;2023-05-10T12:40:24;5.68;;;4.18;;
39822;SDS011;25499;53.958;10.970;2023-05-10T12:42:51;7.50;;;4.93;;
39822;SDS011;25499;53.958;10.970;2023-05-10T12:45:18;5.57;;;4.60;;
39822;SDS011;25499;53.958;10.970;2023-05-10T12:47:45;6.80;;;4.60;;
39822;SDS011;25499;53.958;10.970;2023-05-10T12:50:14;5.90;;;4.60;;
39822;SDS011;25499;53.958;10.970;2023-05-10T12:52:40;5.10;;;4.60;;
39822;SDS011;25499;53.958;10.970;2023-05-10T12:55:07;6.20;;;3.13;;
39822;SDS011;25499;53.958;10.970;2023-05-10T12:57:34;6.82;;;4.38;;
39822;SDS011;25499;53.958;10.970;2023-05-10T13:00:01;5.15;;;4.72;;
39822;SDS011;25499;53.958;10.970;2023-05-10T13:02:30;4.72;;;4.22;;
39822;SDS011;25499;53.958;10.970;2023-05-10T13:04:56;4.60;;;4.10;;
39822;SDS011;25499;53.958;10.970;2023-05-10T13:07:24;5.60;;;4.28;;
39822;SDS011;25499;53.958;10.970;2023-05-10T13:09:51;4.45;;;4.05;;
39822;SDS011;25499;53.958;10.970;2023-05-10T13:12:18;5.18;;;4.00;;
39822;SDS011;25499;53.958;10.970;2023-05-10T13:14:44;6.90;;;4.40;;
39822;SDS011;25499;53.958;10.970;2023-05-10T13:17:11;5.38;;;4.60;;
39822;SDS011;25499;53.958;10.970;2023-05-10T13:19:38;5.10;;;4.10;;
39822;SDS011;25499;53.958;10.970;2023-05-10T13:22:05;5.80;;;3.95;;
39822;SDS011;25499;53.958;10.970;2023-05-10T13:24:33;9.23;;;4.25;;
39822;SDS011;25499;53.958;10.970;2023-05-10T13:27:00;4.97;;;4.28;;
39822;SDS011;25499;53.958;10.970;2023-05-10T13:29:26;5.18;;;4.38;;
39822;SDS011;25499;53.958;10.970;2023-05-10T13:31:53;3.33;;;3.03;;
39822;SDS011;25499;53.958;10.970;2023-05-10T13:34:20;6.13;;;4.30;;
39822;SDS011;25499;53.958;10.970;2023-05-10T13:36:47;5.35;;;4.65;;
39822;SDS011;25499;53.958;10.970;2023-05-10T13:39:14;4.57;;;4.10;;
39822;SDS011;25499;53.958;10.970;2023-05-10T13:41:42;5.57;;;4.28;;
39822;SDS011;25499;53.958;10.970;2023-05-10T13:44:11;5.13;;;4.63;;
39822;SDS011;25499;53.958;10.970;2023-05-10T13:46:38;5.22;;;4.43;;
39822;SDS011;25499;53.958;10.970;2023-05-10T13:49:05;8.32;;;4.60;;
39822;SDS011;25499;53.958;10.970;2023-05-10T13:51:33;5.63;;;4.43;;
39822;SDS011;25499;53.958;10.970;2023-05-10T13:54:00;6.38;;;5.10;;
39822;SDS011;25499;53.958;10.970;2023-05-10T13:56:27;6.15;;;4.60;;
39822;SDS011;25499;53.958;10.970;2023-05-10T13:58:55;5.80;;;5.18;;
39822;SDS011;25499;53.958;10.970;2023-05-10T14:01:23;7.43;;;5.13;;
39822;SDS011;25499;53.958;10.970;2023-05-10T14:03:49;7.13;;;5.63;;
39822;SDS011;25499;53.958;10.970;2023-05-10T14:06:16;8.15;;;5.40;;
39822;SDS011;25499;53.958;10.970;2023-05-10T14:08:43;6.75;;;5.50;;
39822;SDS011;25499;53.958;10.970;2023-05-10T14:11:10;7.00;;;5.45;;
39822;SDS011;25499;53.958;10.970;2023-05-10T14:13:37;6.45;;;5.90;;
39822;SDS011;25499;53.958;10.970;2023-05-10T14:16:06;8.13;;;6.47;;
39822;SDS011;25499;53.958;10.970;2023-05-10T14:18:33;6.78;;;6.07;;
39822;SDS011;25499;53.958;10.970;2023-05-10T14:21:01;8.73;;;6.93;;
39822;SDS011;25499;53.958;10.970;2023-05-10T14:23:28;7.38;;;6.25;;
39822;SDS011;25499;53.958;10.970;2023-05-10T14:25:55;10.13;;;6.95;;
39822;SDS011;25499;53.958;10.970;2023-05-10T14:28:22;7.82;;;6.30;;
39822;SDS011;25499;53.958;10.970;2023-05-10T14:30:50;8.35;;;7.32;;
39822;SDS011;25499;53.958;10.970;2023-05-10T14:33:18;9.40;;;7.70;;
39822;SDS011;25499;53.958;10.970;2023-05-10T14:35:45;9.10;;;7.20;;
39822;SDS011;25499;53.958;10.970;2023-05-10T14:38:12;10.93;;;7.57;;
39822;SDS011;25499;53.958;10.970;2023-05-10T14:40:40;9.85;;;7.88;;
39822;SDS011;25499;53.958;10.970;2023-05-10T14:43:07;10.40;;;7.45;;
39822;SDS011;25499;53.958;10.970;2023-05-10T14:45:34;9.52;;;8.15;;
39822;SDS011;25499;53.958;10.970;2023-05-10T14:48:01;9.57;;;7.95;;
39822;SDS011;25499;53.958;10.970;2023-05-10T14:50:31;8.38;;;7.50;;
39822;SDS011;25499;53.958;10.970;2023-05-10T14:52:58;10.98;;;8.07;;
39822;SDS011;25499;53.958;10.970;2023-05-10T14:55:25;11.35;;;8.80;;
39822;SDS011;25499;53.958;10.970;2023-05-10T14:57:51;11.23;;;8.25;;
39822;SDS011;25499;53.958;10.970;2023-05-10T15:00:19;10.07;;;8.02;;
39822;SDS011;25499;53.958;10.970;2023-05-10T15:02:46;9.70;;;8.70;;
39822;SDS011;25499;53.958;10.970;2023-05-10T15:05:14;11.98;;;8.52;;
39822;SDS011;25499;53.958;10.970;2023-05-10T15:07:42;10.65;;;8.43;;
39822;SDS011;25499;53.958;10.970;2023-05-10T15:10:09;11.13;;;9.00;;
39822;SDS011;25499;53.958;10.970;2023-05-10T15:12:36;9.77;;;8.05;;
39822;SDS011;25499;53.958;10.970;2023-05-10T15:15:03;10.50;;;7.60;;
39822;SDS011;25499;53.958;10.970;2023-05-10T15:17:30;9.23;;;8.15;;
39822;SDS011;25499;53.958;10.970;2023-05-10T15:19:57;9.15;;;7.95;;
39822;SDS011;25499;53.958;10.970;2023-05-10T15:22:23;8.63;;;7.57;;
39822;SDS011;25499;53.958;10.970;2023-05-10T15:24:52;9.98;;;8.02;;
39822;SDS011;25499;53.958;10.970;2023-05-10T15:27:18;6.35;;;5.75;;
39822;SDS011;25499;53.958;10.970;2023-05-10T15:29:45;8.85;;;7.45;;
39822;SDS011;25499;53.958;10.970;2023-05-10T15:32:12;7.28;;;5.28;;
39822;SDS011;25499;53.958;10.970;2023-05-10T15:34:39;8.35;;;7.53;;
39822;SDS011;25499;53.958;10.970;2023-05-10T15:37:06;7.55;;;6.68;;
39822;SDS011;25499;53.958;10.970;2023-05-10T15:39:32;8.25;;;6.95;;
39822;SDS011;25499;53.958;10.970;2023-05-10T15:42:01;8.90;;;7.38;;
39822;SDS011;25499;53.958;10.970;2023-05-10T15:44:29;7.93;;;7.13;;
39822;SDS011;25499;53.958;10.970;2023-05-10T15:46:55;8.50;;;7.60;;
39822;SDS011;25499;53.958;10.970;2023-05-10T15:49:22;7.97;;;7.25;;
39822;SDS011;25499;53.958;10.970;2023-05-10T15:51:49;8.85;;;7.68;;
39822;SDS011;25499;53.958;10.970;2023-05-10T15:54:16;9.30;;;8.10;;
39822;SDS011;25499;53.958;10.970;2023-05-10T15:56:43;10.32;;;7.78;;
39822;SDS011;25499;53.958;10.970;2023-05-10T15:59:11;9.10;;;7.78;;
39822;SDS011;25499;53.958;10.970;2023-05-10T16:01:38;8.73;;;7.57;;
39822;SDS011;25499;53.958;10.970;2023-05-10T16:04:05;10.27;;;8.48;;
39822;SDS011;25499;53.958;10.970;2023-05-10T16:06:33;8.63;;;7.82;;
39822;SDS011;25499;53.958;10.970;2023-05-10T16:09:01;10.82;;;8.18;;
39822;SDS011;25499;53.958;10.970;2023-05-10T16:11:28;8.60;;;7.70;;
39822;SDS011;25499;53.958;10.970;2023-05-10T16:13:55;9.55;;;8.55;;
39822;SDS011;25499;53.958;10.970;2023-05-10T16:16:24;11.50;;;8.27;;
39822;SDS011;25499;53.958;10.970;2023-05-10T16:18:51;9.32;;;8.13;;
39822;SDS011;25499;53.958;10.970;2023-05-10T16:21:17;9.65;;;8.27;;
39822;SDS011;25499;53.958;10.970;2023-05-10T16:23:44;12.43;;;8.27;;
39822;SDS011;25499;53.958;10.970;2023-05-10T16:26:11;9.35;;;7.93;;
39822;SDS011;25499;53.958;10.970;2023-05-10T16:28:38;8.80;;;7.90;;
39822;SDS011;25499;53.958;10.970;2023-05-10T16:31:05;8.77;;;7.65;;
39822;SDS011;25499;53.958;10.970;2023-05-10T16:33:33;8.48;;;7.63;;
39822;SDS011;25499;53.958;10.970;2023-05-10T16:36:01;8.18;;;7.30;;
39822;SDS011;25499;53.958;10.970;2023-05-10T16:38:30;8.52;;;7.70;;
39822;SDS011;25499;53.958;10.970;2023-05-10T16:40:56;8.80;;;7.20;;
39822;SDS011;25499;53.958;10.970;2023-05-10T16:43:23;11.13;;;7.82;;
39822;SDS011;25499;53.958;10.970;2023-05-10T16:45:50;8.23;;;7.40;;
39822;SDS011;25499;53.958;10.970;2023-05-10T16:48:18;9.65;;;8.00;;
39822;SDS011;25499;53.958;10.970;2023-05-10T16:50:46;8.07;;;7.18;;
39822;SDS011;25499;53.958;10.970;2023-05-10T16:53:13;8.95;;;7.57;;
39822;SDS011;25499;53.958;10.970;2023-05-10T16:55:40;7.75;;;6.95;;
39822;SDS011;25499;53.958;10.970;2023-05-10T16:58:07;8.15;;;7.00;;
39822;SDS011;25499;53.958;10.970;2023-05-10T17:00:34;9.68;;;7.35;;
39822;SDS011;25499;53.958;10.970;2023-05-10T17:03:00;8.85;;;7.50;;
39822;SDS011;25499;53.958;10.970;2023-05-10T17:05:27;7.55;;;6.75;;
39822;SDS011;25499;53.958;10.970;2023-05-10T17:07:56;6.65;;;6.05;;
39822;SDS011;25499;53.958;10.970;2023-05-10T17:10:22;10.07;;;6.18;;
39822;SDS011;25499;53.958;10.970;2023-05-10T17:12:49;6.50;;;5.90;;
39822;SDS011;25499;53.958;10.970;2023-05-10T17:15:17;6.30;;;5.70;;
39822;SDS011;25499;53.958;10.970;2023-05-10T17:17:45;7.95;;;5.72;;
39822;SDS011;25499;53.958;10.970;2023-05-10T17:20:12;6.22;;;5.63;;
39822;SDS011;25499;53.958;10.970;2023-05-10T17:22:40;6.32;;;5.60;;
39822;SDS011;25499;53.958;10.970;2023-05-10T17:25:08;5.97;;;5.20;;
39822;SDS011;25499;53.958;10.970;2023-05-10T17:27:35;6.65;;;5.88;;
39822;SDS011;25499;53.958;10.970;2023-05-10T17:30:02;6.97;;;6.25;;
39822;SDS011;25499;53.958;10.970;2023-05-10T17:32:29;6.57;;;5.68;;
39822;SDS011;25499;53.958;10.970;2023-05-10T17:34:57;6.63;;;5.78;;
39822;SDS011;25499;53.958;10.970;2023-05-10T17:37:24;7.22;;;5.97;;
39822;SDS011;25499;53.958;10.970;2023-05-10T17:39:51;6.05;;;5.45;;
39822;SDS011;25499;53.958;10.970;2023-05-10T17:42:19;6.35;;;5.72;;
39822;SDS011;25499;53.958;10.970;2023-05-10T17:44:45;5.50;;;5.00;;
39822;SDS011;25499;53.958;10.970;2023-05-10T17:47:12;5.75;;;4.82;;
39822;SDS011;25499;53.958;10.970;2023-05-10T17:49:39;5.60;;;4.72;;
39822;SDS011;25499;53.958;10.970;2023-05-10T17:52:06;5.03;;;4.22;;
39822;SDS011;25499;53.958;10.970;2023-05-10T17:54:33;6.63;;;4.57;;
39822;SDS011;25499;53.958;10.970;2023-05-10T17:56:59;4.80;;;4.40;;
39822;SDS011;25499;53.958;10.970;2023-05-10T17:59:29;4.80;;;4.30;;
39822;SDS011;25499;53.958;10.970;2023-05-10T18:01:56;5.95;;;4.50;;
39822;SDS011;25499;53.958;10.970;2023-05-10T18:04:23;4.68;;;4.28;;
39822;SDS011;25499;53.958;10.970;2023-05-10T18:06:51;4.70;;;4.30;;
39822;SDS011;25499;53.958;10.970;2023-05-10T18:09:24;4.63;;;4.22;;
39822;SDS011;25499;53.958;10.970;2023-05-10T18:11:51;5.63;;;4.63;;
39822;SDS011;25499;53.958;10.970;2023-05-10T18:14:18;4.32;;;3.92;;
39822;SDS011;25499;53.958;10.970;2023-05-10T18:16:48;4.25;;;3.85;;
39822;SDS011;25499;53.958;10.970;2023-05-10T18:19:15;4.30;;;3.90;;
39822;SDS011;25499;53.958;10.970;2023-05-10T18:21:42;7.13;;;5.05;;
39822;SDS011;25499;53.958;10.970;2023-05-10T18:24:09;4.10;;;3.70;;
39822;SDS011;25499;53.958;10.970;2023-05-10T18:26:36;4.38;;;3.97;;
39822;SDS011;25499;53.958;10.970;2023-05-10T18:29:02;3.90;;;3.60;;
39822;SDS011;25499;53.958;10.970;2023-05-10T18:31:29;4.43;;;4.03;;
39822;SDS011;25499;53.958;10.970;2023-05-10T18:33:57;4.80;;;4.25;;
39822;SDS011;25499;53.958;10.970;2023-05-10T18:36:24;6.22;;;4.90;;
39822;SDS011;25499;53.958;10.970;2023-05-10T18:38:51;4.88;;;4.47;;
39822;SDS011;25499;53.958;10.970;2023-05-10T18:41:19;4.60;;;4.05;;
39822;SDS011;25499;53.958;10.970;2023-05-10T18:43:46;4.82;;;4.07;;
39822;SDS011;25499;53.958;10.970;2023-05-10T18:46:13;5.47;;;4.45;;
39822;SDS011;25499;53.958;10.970;2023-05-10T18:48:40;4.18;;;3.78;;
39822;SDS011;25499;53.958;10.970;2023-05-10T18:51:08;5.38;;;4.40;;
39822;SDS011;25499;53.958;10.970;2023-05-10T18:53:36;4.25;;;3.85;;
39822;SDS011;25499;53.958;10.970;2023-05-10T18:56:03;4.05;;;3.65;;
39822;SDS011;25499;53.958;10.970;2023-05-10T18:58:31;5.05;;;4.10;;
39822;SDS011;25499;53.958;10.970;2023-05-10T19:00:59;5.05;;;4.55;;
39822;SDS011;25499;53.958;10.970;2023-05-10T19:03:27;4.88;;;4.13;;
39822;SDS011;25499;53.958;10.970;2023-05-10T19:05:54;5.65;;;4.43;;
39822;SDS011;25499;53.958;10.970;2023-05-10T19:08:22;4.25;;;3.85;;
39822;SDS011;25499;53.958;10.970;2023-05-10T19:10:49;4.90;;;4.50;;
39822;SDS011;25499;53.958;10.970;2023-05-10T19:13:16;6.07;;;4.82;;
39822;SDS011;25499;53.958;10.970;2023-05-10T19:15:42;7.20;;;4.95;;
39822;SDS011;25499;53.958;10.970;2023-05-10T19:18:09;6.38;;;4.70;;
39822;SDS011;25499;53.958;10.970;2023-05-10T19:20:36;3.97;;;3.63;;
39822;SDS011;25499;53.958;10.970;2023-05-10T19:23:03;4.05;;;3.45;;
39822;SDS011;25499;53.958;10.970;2023-05-10T19:25:31;5.38;;;3.30;;
39822;SDS011;25499;53.958;10.970;2023-05-10T19:27:58;4.50;;;3.63;;
39822;SDS011;25499;53.958;10.970;2023-05-10T19:30:25;4.38;;;3.92;;
39822;SDS011;25499;53.958;10.970;2023-05-10T19:32:53;4.35;;;3.95;;
39822;SDS011;25499;53.958;10.970;2023-05-10T19:35:20;5.35;;;4.63;;
39822;SDS011;25499;53.958;10.970;2023-05-10T19:37:47;5.05;;;4.55;;
39822;SDS011;25499;53.958;10.970;2023-05-10T19:40:14;5.13;;;4.63;;
39822;SDS011;25499;53.958;10.970;2023-05-10T19:42:42;6.57;;;5.03;;
39822;SDS011;25499;53.958;10.970;2023-05-10T19:45:10;4.75;;;4.25;;
39822;SDS011;25499;53.958;10.970;2023-05-10T19:47:39;5.30;;;4.80;;
39822;SDS011;25499;53.958;10.970;2023-05-10T19:50:07;5.13;;;4.65;;
39822;SDS011;25499;53.958;10.970;2023-05-10T19:52:34;5.30;;;4.80;;
39822;SDS011;25499;53.958;10.970;2023-05-10T19:55:00;4.93;;;4.47;;
39822;SDS011;25499;53.958;10.970;2023-05-10T19:57:28;5.40;;;4.90;;
